createdAt,value
2023-03-03T00:01:32.444Z,12.17
2023-03-03T00:04:00.252Z,12.23
2023-03-03T00:06:27.618Z,11.60
2023-03-03T00:08:55.076Z,12.33
2023-03-03T00:11:22.421Z,12.00
2023-03-03T00:13:57.218Z,12.10
2023-03-03T00:16:40.675Z,12.40
2023-03-03T00:19:21.067Z,10.63
2023-03-03T00:21:51.283Z,13.00
2023-03-03T00:24:38.119Z,13.27
2023-03-03T00:27:30.060Z,12.97
2023-03-03T00:29:58.999Z,13.03
2023-03-03T00:32:47.099Z,16.93
2023-03-03T00:35:30.278Z,16.53
2023-03-03T00:38:03.147Z,14.23
2023-03-03T00:40:39.808Z,15.20
2023-03-03T00:43:22.052Z,16.33
2023-03-03T00:45:50.736Z,15.77
2023-03-03T00:48:27.361Z,13.30
2023-03-03T00:50:57.629Z,13.83
2023-03-03T00:53:30.576Z,17.13
2023-03-03T00:55:58.678Z,17.03
2023-03-03T00:58:27.378Z,14.73
2023-03-03T01:00:56.569Z,17.53
2023-03-03T01:03:29.231Z,18.87
2023-03-03T01:05:56.637Z,15.63
2023-03-03T01:08:25.045Z,19.33
2023-03-03T01:10:58.072Z,16.87
2023-03-03T01:13:35.697Z,16.77
2023-03-03T01:16:05.552Z,18.67
2023-03-03T01:18:33.210Z,21.10
2023-03-03T01:21:02.326Z,20.03
2023-03-03T01:23:29.752Z,19.07
2023-03-03T01:25:57.728Z,20.40
2023-03-03T01:28:25.081Z,16.47
2023-03-03T01:30:52.870Z,18.77
2023-03-03T01:33:20.669Z,17.17
2023-03-03T01:35:48.583Z,19.53
2023-03-03T01:38:16.352Z,21.77
2023-03-03T01:40:43.706Z,19.27
2023-03-03T01:43:15.963Z,20.67
2023-03-03T01:45:49.314Z,19.40
2023-03-03T01:48:36.356Z,17.07
2023-03-03T01:51:25.858Z,20.87
2023-03-03T01:54:06.678Z,20.47
2023-03-03T01:56:33.952Z,21.47
2023-03-03T01:59:07.110Z,22.97
2023-03-03T02:01:34.703Z,18.83
2023-03-03T02:04:02.454Z,24.77
2023-03-03T02:06:41.121Z,22.80
2023-03-03T02:09:27.530Z,19.10
2023-03-03T02:11:59.519Z,21.23
2023-03-03T02:14:26.855Z,20.43
2023-03-03T02:16:54.371Z,21.60
2023-03-03T02:19:27.098Z,25.60
2023-03-03T02:21:54.664Z,24.17
2023-03-03T02:24:45.188Z,22.97
2023-03-03T02:27:14.472Z,22.60
2023-03-03T02:29:42.953Z,23.73
2023-03-03T02:32:11.429Z,22.77
2023-03-03T02:34:50.717Z,22.47
2023-03-03T02:37:18.815Z,21.17
2023-03-03T02:39:47.644Z,23.03
2023-03-03T02:42:36.798Z,23.87
2023-03-03T02:45:04.455Z,24.17
2023-03-03T02:47:31.808Z,26.90
2023-03-03T02:50:00.906Z,23.50
2023-03-03T02:52:28.202Z,24.60
2023-03-03T02:54:55.595Z,22.70
2023-03-03T02:57:23.393Z,27.07
2023-03-03T02:59:50.999Z,23.57
2023-03-03T03:02:19.348Z,22.93
2023-03-03T03:04:47.203Z,26.63
2023-03-03T03:07:18.873Z,26.67
2023-03-03T03:09:46.190Z,27.07
2023-03-03T03:12:15.902Z,28.13
2023-03-03T03:14:44.034Z,26.67
2023-03-03T03:17:12.625Z,26.13
2023-03-03T03:19:40.919Z,27.67
2023-03-03T03:22:08.506Z,25.57
2023-03-03T03:24:36.712Z,28.00
2023-03-03T03:27:07.618Z,27.93
2023-03-03T03:29:35.061Z,28.33
2023-03-03T03:32:05.797Z,31.33
2023-03-03T03:34:33.103Z,28.10
2023-03-03T03:37:00.693Z,29.43
2023-03-03T03:39:29.130Z,28.37
2023-03-03T03:41:57.209Z,30.57
2023-03-03T03:44:25.209Z,30.83
2023-03-03T03:46:52.825Z,29.83
2023-03-03T03:49:21.493Z,29.70
2023-03-03T03:51:51.699Z,35.13
2023-03-03T03:54:21.876Z,29.70
2023-03-03T03:56:49.992Z,30.63
2023-03-03T03:59:17.322Z,30.03
2023-03-03T04:01:44.836Z,28.57
2023-03-03T04:04:12.254Z,32.43
2023-03-03T04:06:40.754Z,31.00
2023-03-03T04:09:08.853Z,32.33
2023-03-03T04:11:36.608Z,29.33
2023-03-03T04:14:06.049Z,32.10
2023-03-03T04:16:35.094Z,33.03
2023-03-03T04:19:02.422Z,34.83
2023-03-03T04:21:29.834Z,30.47
2023-03-03T04:24:00.099Z,32.20
2023-03-03T04:26:29.333Z,35.30
2023-03-03T04:28:57.565Z,37.07
2023-03-03T04:31:25.932Z,39.03
2023-03-03T04:33:53.613Z,33.07
2023-03-03T04:36:22.431Z,34.23
2023-03-03T04:38:50.706Z,33.00
2023-03-03T04:41:18.790Z,34.90
2023-03-03T04:43:46.511Z,40.63
2023-03-03T04:46:14.446Z,32.23
2023-03-03T04:48:41.987Z,35.50
2023-03-03T04:51:10.451Z,34.70
2023-03-03T04:53:38.655Z,38.93
2023-03-03T04:56:09.141Z,38.30
2023-03-03T04:58:37.321Z,42.30
2023-03-03T05:01:05.291Z,33.13
2023-03-03T05:03:33.762Z,39.00
2023-03-03T05:06:01.215Z,39.30
2023-03-03T05:08:28.450Z,42.07
2023-03-03T05:10:56.024Z,38.97
2023-03-03T05:13:23.336Z,41.17
2023-03-03T05:15:52.508Z,41.33
2023-03-03T05:18:20.374Z,42.80
2023-03-03T05:20:48.429Z,43.93
2023-03-03T05:23:15.880Z,41.10
2023-03-03T05:25:43.790Z,44.97
2023-03-03T05:28:11.493Z,45.20
2023-03-03T05:30:38.774Z,41.57
2023-03-03T05:33:06.471Z,48.27
2023-03-03T05:35:34.491Z,42.77
2023-03-03T05:38:05.297Z,40.53
2023-03-03T05:40:33.233Z,46.57
2023-03-03T05:43:00.940Z,50.40
2023-03-03T05:45:28.634Z,46.23
2023-03-03T05:47:56.472Z,42.07
2023-03-03T05:50:24.695Z,44.90
2023-03-03T05:52:53.446Z,45.33
2023-03-03T05:55:21.060Z,44.23
2023-03-03T05:57:48.742Z,48.30
2023-03-03T06:00:17.047Z,47.70
2023-03-03T06:02:44.768Z,41.73
2023-03-03T06:05:12.146Z,43.73
2023-03-03T06:07:39.849Z,47.50
2023-03-03T06:10:07.805Z,48.17
2023-03-03T06:12:38.957Z,53.33
2023-03-03T06:15:08.404Z,50.27
2023-03-03T06:17:36.983Z,50.33
2023-03-03T06:20:05.345Z,42.40
2023-03-03T06:22:33.647Z,49.37
2023-03-03T06:25:01.813Z,48.27
2023-03-03T06:27:30.256Z,50.37
2023-03-03T06:29:58.371Z,41.57
2023-03-03T06:32:26.805Z,43.10
2023-03-03T06:34:55.333Z,46.30
2023-03-03T06:37:23.384Z,49.93
2023-03-03T06:39:53.116Z,45.67
2023-03-03T06:42:21.568Z,49.80
2023-03-03T06:44:49.548Z,44.03
2023-03-03T06:47:21.926Z,42.80
2023-03-03T06:50:22.480Z,47.80
2023-03-03T06:53:05.628Z,45.60
2023-03-03T06:55:36.091Z,43.27
2023-03-03T06:58:10.948Z,51.57
2023-03-03T07:00:38.565Z,45.37
2023-03-03T07:03:15.305Z,47.23
2023-03-03T07:05:43.680Z,45.83
2023-03-03T07:08:19.088Z,44.90
2023-03-03T07:10:48.679Z,49.67
2023-03-03T07:13:25.312Z,48.57
2023-03-03T07:15:54.525Z,42.87
2023-03-03T07:18:39.121Z,48.27
2023-03-03T07:21:22.900Z,45.83
2023-03-03T07:23:54.389Z,46.40
2023-03-03T07:26:30.672Z,46.50
2023-03-03T07:29:20.723Z,51.70
2023-03-03T07:31:50.325Z,42.47
2023-03-03T07:34:24.897Z,51.13
2023-03-03T07:37:02.395Z,43.80
2023-03-03T07:39:43.055Z,48.83
2023-03-03T07:42:29.634Z,42.77
2023-03-03T07:45:29.923Z,44.07
2023-03-03T07:48:23.849Z,43.80
2023-03-03T07:50:51.468Z,40.83
2023-03-03T07:53:34.686Z,42.50
2023-03-03T07:56:03.371Z,42.97
2023-03-03T07:58:41.784Z,46.60
2023-03-03T08:01:40.570Z,44.10
2023-03-03T08:04:31.415Z,46.80
2023-03-03T08:07:00.713Z,40.77
2023-03-03T08:09:31.013Z,44.93
2023-03-03T08:12:18.921Z,36.20
2023-03-03T08:14:47.324Z,39.80
2023-03-03T08:17:22.649Z,43.67
2023-03-03T08:19:51.521Z,36.47
2023-03-03T08:22:33.194Z,36.47
2023-03-03T08:25:00.493Z,41.50
2023-03-03T08:27:27.930Z,35.70
2023-03-03T08:29:55.282Z,37.33
2023-03-03T08:32:23.008Z,40.67
2023-03-03T08:34:50.332Z,38.77
2023-03-03T08:37:17.628Z,38.97
2023-03-03T08:39:45.372Z,38.13
2023-03-03T08:42:14.666Z,40.50
2023-03-03T08:44:43.280Z,39.20
2023-03-03T08:47:11.002Z,38.27
2023-03-03T08:49:38.386Z,39.20
2023-03-03T08:52:06.131Z,36.27
2023-03-03T08:54:33.433Z,38.47
2023-03-03T08:57:00.991Z,41.67
2023-03-03T08:59:28.315Z,35.83
2023-03-03T09:01:55.739Z,40.77
2023-03-03T09:04:23.072Z,37.73
2023-03-03T09:06:50.445Z,39.90
2023-03-03T09:09:17.760Z,33.73
2023-03-03T09:11:47.136Z,39.70
2023-03-03T09:14:17.840Z,37.33
2023-03-03T09:16:50.526Z,37.17
2023-03-03T09:19:33.370Z,34.70
2023-03-03T09:22:23.754Z,37.83
2023-03-03T09:24:58.878Z,36.33
2023-03-03T09:27:36.926Z,33.80
2023-03-03T09:30:31.859Z,35.67
2023-03-03T09:32:59.159Z,34.83
2023-03-03T09:35:37.229Z,36.80
2023-03-03T09:38:18.088Z,35.73
2023-03-03T09:41:24.296Z,28.37
2023-03-03T09:44:12.059Z,32.33
2023-03-03T09:46:56.464Z,33.47
2023-03-03T09:49:35.968Z,29.73
2023-03-03T09:52:18.355Z,27.03
2023-03-03T09:55:03.783Z,29.43
2023-03-03T09:57:47.074Z,30.03
2023-03-03T10:00:30.133Z,28.67
2023-03-03T10:03:26.069Z,27.07
2023-03-03T10:06:03.639Z,26.80
2023-03-03T10:09:11.335Z,26.23
2023-03-03T10:12:16.326Z,23.87
2023-03-03T10:15:29.055Z,23.07
2023-03-03T10:18:12.678Z,24.63
2023-03-03T10:20:55.484Z,27.23
2023-03-03T10:23:46.617Z,24.50
2023-03-03T10:26:45.769Z,26.23
2023-03-03T10:29:24.094Z,24.57
2023-03-03T10:32:16.549Z,24.30
2023-03-03T10:35:04.421Z,25.33
2023-03-03T10:38:06.240Z,25.40
2023-03-03T10:40:43.478Z,23.10
2023-03-03T10:43:26.127Z,22.87
2023-03-03T10:46:27.230Z,23.40
2023-03-03T10:48:57.795Z,24.93
2023-03-03T10:51:52.226Z,19.83
2023-03-03T10:54:48.974Z,22.57
2023-03-03T10:57:31.447Z,22.87
2023-03-03T11:00:05.927Z,21.07
2023-03-03T11:02:56.467Z,17.43
2023-03-03T11:05:54.565Z,22.80
2023-03-03T11:08:29.541Z,22.10
2023-03-03T11:11:37.101Z,21.40
2023-03-03T11:14:36.632Z,21.43
2023-03-03T11:17:14.572Z,26.60
2023-03-03T11:20:09.760Z,24.37
2023-03-03T11:23:24.510Z,18.63
2023-03-03T11:26:01.198Z,19.90
2023-03-03T11:29:26.218Z,19.20
2023-03-03T11:35:16.753Z,18.07
2023-03-03T11:52:05.197Z,18.77
2023-03-03T11:59:47.748Z,17.73
2023-03-03T12:02:28.539Z,14.30
2023-03-03T12:05:23.279Z,19.33
2023-03-03T12:08:14.141Z,18.37
2023-03-03T12:11:00.548Z,21.50
2023-03-03T12:19:12.807Z,23.63
2023-03-03T12:22:03.687Z,19.53
2023-03-03T12:24:36.894Z,23.17
2023-03-03T12:27:37.101Z,19.83
2023-03-03T12:34:04.814Z,16.27
2023-03-03T12:36:50.674Z,17.40
2023-03-03T12:39:33.949Z,21.93
2023-03-03T12:42:39.663Z,16.77
2023-03-03T12:45:30.476Z,19.17
2023-03-03T12:48:18.010Z,17.73
2023-03-03T12:51:07.113Z,19.10
2023-03-03T12:54:08.946Z,16.80
2023-03-03T12:56:46.089Z,17.27
2023-03-03T12:59:43.449Z,18.50
2023-03-03T13:12:17.090Z,16.20
2023-03-03T13:15:07.989Z,16.03
2023-03-03T13:17:49.798Z,17.37
2023-03-03T13:21:14.775Z,29.37
2023-03-03T13:23:51.773Z,45.13
2023-03-03T13:26:43.057Z,52.80
2023-03-03T13:29:45.983Z,40.47
2023-03-03T13:32:28.565Z,36.93
2023-03-03T13:34:59.962Z,32.90
2023-03-03T13:37:49.995Z,29.40
2023-03-03T13:44:57.610Z,30.37
2023-03-03T13:47:37.628Z,29.83
2023-03-03T13:50:42.698Z,26.80
2023-03-03T13:53:46.487Z,31.13
2023-03-03T13:57:06.604Z,29.57
2023-03-03T14:00:08.472Z,29.83
2023-03-03T14:03:26.650Z,25.70
2023-03-03T14:06:05.515Z,23.97
2023-03-03T14:09:01.243Z,22.10
2023-03-03T14:11:45.930Z,20.73
2023-03-03T14:14:41.125Z,23.60
2023-03-03T14:17:34.488Z,24.43
2023-03-03T14:20:14.189Z,20.57
2023-03-03T14:22:51.440Z,23.23
2023-03-03T14:25:18.947Z,20.00
2023-03-03T14:28:13.895Z,22.50
2023-03-03T14:30:44.174Z,17.40
2023-03-03T14:33:13.720Z,18.73
2023-03-03T14:36:01.594Z,14.63
2023-03-03T14:38:32.469Z,13.37
2023-03-03T14:41:17.377Z,12.03
2023-03-03T14:44:05.892Z,14.07
2023-03-03T14:46:38.275Z,11.83
2023-03-03T14:49:14.471Z,13.43
2023-03-03T14:51:49.010Z,12.60
2023-03-03T14:54:25.056Z,14.30
2023-03-03T15:04:47.713Z,12.03
2023-03-03T15:07:40.075Z,12.93
2023-03-03T15:17:29.491Z,11.80
2023-03-03T15:20:04.525Z,10.10
2023-03-03T15:22:46.834Z,11.20
2023-03-03T15:26:04.536Z,12.37
2023-03-03T15:28:47.029Z,12.97
2023-03-03T15:31:40.088Z,10.77
2023-03-03T15:44:00.883Z,12.03
2023-03-03T15:46:49.645Z,9.23
2023-03-03T15:49:35.688Z,8.73
2023-03-03T15:52:24.933Z,9.90
2023-03-03T15:55:32.240Z,8.80
2023-03-03T15:58:38.878Z,9.27
2023-03-03T16:01:34.540Z,9.37
2023-03-03T16:05:01.380Z,9.30
2023-03-03T16:07:48.267Z,9.63
2023-03-03T16:10:44.338Z,9.40
2023-03-03T16:13:49.214Z,8.37
2023-03-03T16:16:27.958Z,9.00
2023-03-03T16:24:41.017Z,8.53
2023-03-03T16:32:01.448Z,11.23
2023-03-03T16:34:41.950Z,8.33
2023-03-03T16:37:27.396Z,9.00
2023-03-03T16:40:36.207Z,8.03
2023-03-03T16:43:34.680Z,9.10
2023-03-03T16:46:39.686Z,8.67
2023-03-03T16:49:30.479Z,9.30
2023-03-03T16:52:34.623Z,10.00
2023-03-03T16:55:14.816Z,11.07
2023-03-03T16:57:47.959Z,9.57
2023-03-03T17:00:20.378Z,9.83
2023-03-03T17:03:09.663Z,10.00
2023-03-03T17:05:58.987Z,9.00
2023-03-03T17:08:29.660Z,9.23
2023-03-03T17:11:21.509Z,9.70
2023-03-03T17:14:19.836Z,10.33
2023-03-03T17:17:42.913Z,9.53
2023-03-03T17:20:39.650Z,10.43
2023-03-03T17:23:35.400Z,8.80
2023-03-03T17:26:31.915Z,7.93
2023-03-03T17:30:01.918Z,8.73
2023-03-03T17:32:50.002Z,10.67
2023-03-03T17:35:58.639Z,7.93
2023-03-03T17:38:54.928Z,8.13
2023-03-03T17:41:49.115Z,7.00
2023-03-03T17:44:43.342Z,11.70
2023-03-03T17:47:31.505Z,7.27
2023-03-03T17:50:30.108Z,7.37
2023-03-03T17:53:23.529Z,6.83
2023-03-03T17:56:03.144Z,6.77
2023-03-03T17:59:05.990Z,6.90
2023-03-03T18:01:56.146Z,7.83
2023-03-03T18:04:45.570Z,7.57
2023-03-03T18:07:28.518Z,7.37
2023-03-03T18:10:28.413Z,7.10
2023-03-03T18:13:24.517Z,7.57
2023-03-03T18:16:13.627Z,7.20
2023-03-03T18:19:00.150Z,7.97
2023-03-03T18:21:54.712Z,7.23
2023-03-03T18:24:25.158Z,8.33
2023-03-03T18:26:56.338Z,7.23
2023-03-03T18:29:28.499Z,9.20
2023-03-03T18:31:58.960Z,7.90
2023-03-03T18:34:42.716Z,7.53
2023-03-03T18:37:30.402Z,12.17
2023-03-03T18:40:03.995Z,13.60
2023-03-03T18:42:41.861Z,9.80
2023-03-03T18:45:19.280Z,8.43
2023-03-03T18:48:12.689Z,8.20
2023-03-03T18:50:55.442Z,8.60
2023-03-03T19:07:08.075Z,8.57
2023-03-03T19:14:51.547Z,7.83
2023-03-03T19:25:17.126Z,14.90
2023-03-03T19:28:02.571Z,11.60
2023-03-03T19:30:52.934Z,11.97
2023-03-03T19:33:57.501Z,13.70
2023-03-03T19:36:24.804Z,9.47
2023-03-03T19:39:06.017Z,11.20
2023-03-03T19:41:45.725Z,11.27
2023-03-03T19:44:42.814Z,10.83
2023-03-03T19:47:36.528Z,11.90
2023-03-03T19:50:20.560Z,10.70
2023-03-03T19:53:21.943Z,15.67
2023-03-03T19:56:23.092Z,15.27
2023-03-03T19:58:57.985Z,16.40
2023-03-03T20:01:30.313Z,16.67
2023-03-03T20:04:11.251Z,12.77
2023-03-03T20:07:05.274Z,14.03
2023-03-03T20:09:59.500Z,15.17
2023-03-03T20:13:00.424Z,15.73
2023-03-03T20:15:59.576Z,10.97
2023-03-03T20:18:52.228Z,12.33
2023-03-03T20:22:02.796Z,13.07
2023-03-03T20:24:54.497Z,11.87
2023-03-03T20:27:50.440Z,14.47
2023-03-03T20:30:38.364Z,12.13
2023-03-03T20:33:27.870Z,12.57
2023-03-03T20:36:33.579Z,11.77
2023-03-03T20:39:11.110Z,11.77
2023-03-03T20:42:06.227Z,11.80
2023-03-03T20:45:04.568Z,12.00
2023-03-03T20:48:02.250Z,12.10
2023-03-03T20:51:07.690Z,13.37
2023-03-03T20:53:57.400Z,11.97
2023-03-03T20:56:36.610Z,11.93
2023-03-03T20:59:29.081Z,12.83
2023-03-03T21:01:59.732Z,11.53
2023-03-03T21:04:30.034Z,12.17
2023-03-03T21:06:58.387Z,14.27
2023-03-03T21:09:31.715Z,11.17
2023-03-03T21:12:01.598Z,11.17
2023-03-03T21:14:33.572Z,13.50
2023-03-03T21:17:11.654Z,12.07
2023-03-03T21:19:42.158Z,13.73
2023-03-03T21:22:10.732Z,11.60
2023-03-03T21:24:58.842Z,11.10
2023-03-03T21:27:35.039Z,12.73
2023-03-03T21:30:16.439Z,11.60
2023-03-03T21:32:46.447Z,13.07
2023-03-03T21:35:17.401Z,13.27
2023-03-03T21:37:55.145Z,16.17
2023-03-03T21:40:28.397Z,11.87
2023-03-03T21:42:58.760Z,14.60
2023-03-03T21:45:27.564Z,14.87
2023-03-03T21:47:59.696Z,17.10
2023-03-03T21:50:36.320Z,15.17
2023-03-03T21:53:04.433Z,14.53
2023-03-03T21:55:32.716Z,15.53
2023-03-03T21:58:00.638Z,17.40
2023-03-03T22:00:28.587Z,16.87
2023-03-03T22:03:00.727Z,17.00
2023-03-03T22:05:29.750Z,18.17
2023-03-03T22:07:58.675Z,17.20
2023-03-03T22:10:27.533Z,19.57
2023-03-03T22:12:57.402Z,16.60
2023-03-03T22:15:28.468Z,15.83
2023-03-03T22:18:00.082Z,17.47
2023-03-03T22:20:29.035Z,15.77
2023-03-03T22:22:57.643Z,18.13
2023-03-03T22:25:29.721Z,18.17
2023-03-03T22:27:58.620Z,18.03
2023-03-03T22:30:27.010Z,17.00
2023-03-03T22:32:56.294Z,16.77
2023-03-03T22:35:24.447Z,17.10
2023-03-03T22:37:54.304Z,14.57
2023-03-03T22:40:23.602Z,17.73
2023-03-03T22:42:51.984Z,15.67
2023-03-03T22:45:24.083Z,14.70
2023-03-03T22:47:58.945Z,18.57
2023-03-03T22:50:32.621Z,22.17
2023-03-03T22:53:04.664Z,26.90
2023-03-03T22:55:37.846Z,28.97
2023-03-03T22:58:09.467Z,25.60
2023-03-03T23:00:45.649Z,18.43
2023-03-03T23:03:20.844Z,18.67
2023-03-03T23:05:52.505Z,18.10
2023-03-03T23:25:58.477Z,17.23
2023-03-03T23:28:56.138Z,15.50
2023-03-03T23:31:40.406Z,17.77
2023-03-03T23:35:23.620Z,18.17
2023-03-03T23:46:07.633Z,18.27
2023-03-03T23:51:55.145Z,20.23
2023-03-03T23:54:24.050Z,16.23
2023-03-03T23:56:55.964Z,19.10
2023-03-03T23:59:28.268Z,16.17
